sensor_id;sensor_type;location;lat;lon;timestamp;temperature;humidity
24152;DHT22;12311;50.866;4.332;2024-03-23T00:55:37;7.90;99.90
24152;DHT22;12311;50.866;4.332;2024-03-23T00:58:03;7.90;99.90
24152;DHT22;12311;50.866;4.332;2024-03-23T01:00:29;8.00;99.90
24152;DHT22;12311;50.866;4.332;2024-03-23T01:02:55;8.00;99.90
24152;DHT22;12311;50.866;4.332;2024-03-23T01:05:20;8.00;99.90
24152;DHT22;12311;50.866;4.332;2024-03-23T01:07:46;7.90;99.90
24152;DHT22;12311;50.866;4.332;2024-03-23T01:10:12;8.00;99.90
24152;DHT22;12311;50.866;4.332;2024-03-23T01:12:37;7.80;99.90
24152;DHT22;12311;50.866;4.332;2024-03-23T01:15:03;7.70;99.90
24152;DHT22;12311;50.866;4.332;2024-03-23T01:17:29;7.70;99.90
24152;DHT22;12311;50.866;4.332;2024-03-23T01:19:54;7.60;99.90
24152;DHT22;12311;50.866;4.332;2024-03-23T01:22:20;7.40;99.90
24152;DHT22;12311;50.866;4.332;2024-03-23T01:24:46;7.30;99.90
24152;DHT22;12311;50.866;4.332;2024-03-23T01:27:11;7.40;99.90
24152;DHT22;12311;50.866;4.332;2024-03-23T01:29:37;7.50;99.90
24152;DHT22;12311;50.866;4.332;2024-03-23T01:32:02;7.50;99.90
24152;DHT22;12311;50.866;4.332;2024-03-23T01:34:28;7.40;99.90
24152;DHT22;12311;50.866;4.332;2024-03-23T01:36:54;7.40;99.90
24152;DHT22;12311;50.866;4.332;2024-03-23T01:39:19;7.40;99.90
24152;DHT22;12311;50.866;4.332;2024-03-23T01:41:45;7.40;99.90
24152;DHT22;12311;50.866;4.332;2024-03-23T01:44:11;7.40;99.90
24152;DHT22;12311;50.866;4.332;2024-03-23T01:46:39;7.40;99.90
24152;DHT22;12311;50.866;4.332;2024-03-23T01:49:07;7.40;99.90
24152;DHT22;12311;50.866;4.332;2024-03-23T01:51:34;7.40;99.90
24152;DHT22;12311;50.866;4.332;2024-03-23T01:54:01;7.50;99.90
24152;DHT22;12311;50.866;4.332;2024-03-23T01:56:32;7.50;99.90
24152;DHT22;12311;50.866;4.332;2024-03-23T01:59:00;7.50;99.90
24152;DHT22;12311;50.866;4.332;2024-03-23T02:01:26;7.60;99.90
24152;DHT22;12311;50.866;4.332;2024-03-23T02:03:52;7.60;99.90
24152;DHT22;12311;50.866;4.332;2024-03-23T02:06:17;7.70;99.90
24152;DHT22;12311;50.866;4.332;2024-03-23T02:08:44;7.70;99.90
24152;DHT22;12311;50.866;4.332;2024-03-23T02:11:09;7.60;99.90
24152;DHT22;12311;50.866;4.332;2024-03-23T02:13:35;7.60;99.90
24152;DHT22;12311;50.866;4.332;2024-03-23T02:16:01;7.70;99.90
24152;DHT22;12311;50.866;4.332;2024-03-23T02:18:27;7.60;99.90
24152;DHT22;12311;50.866;4.332;2024-03-23T02:20:52;7.70;99.90
24152;DHT22;12311;50.866;4.332;2024-03-23T02:23:18;7.80;99.90
24152;DHT22;12311;50.866;4.332;2024-03-23T02:25:44;7.90;99.90
24152;DHT22;12311;50.866;4.332;2024-03-23T02:28:10;7.90;99.90
24152;DHT22;12311;50.866;4.332;2024-03-23T02:30:36;7.80;99.90
24152;DHT22;12311;50.866;4.332;2024-03-23T02:33:02;7.90;99.90
24152;DHT22;12311;50.866;4.332;2024-03-23T02:35:28;7.80;99.90
24152;DHT22;12311;50.866;4.332;2024-03-23T02:37:54;7.90;99.90
24152;DHT22;12311;50.866;4.332;2024-03-23T02:40:22;8.00;99.90
24152;DHT22;12311;50.866;4.332;2024-03-23T02:42:48;8.00;99.90
24152;DHT22;12311;50.866;4.332;2024-03-23T02:45:14;8.00;99.90
24152;DHT22;12311;50.866;4.332;2024-03-23T02:47:39;8.00;99.90
24152;DHT22;12311;50.866;4.332;2024-03-23T02:50:05;8.00;99.90
24152;DHT22;12311;50.866;4.332;2024-03-23T02:52:31;8.00;99.90
24152;DHT22;12311;50.866;4.332;2024-03-23T02:54:57;8.00;99.90
24152;DHT22;12311;50.866;4.332;2024-03-23T02:57:23;8.00;99.90
24152;DHT22;12311;50.866;4.332;2024-03-23T02:59:48;8.00;99.90
24152;DHT22;12311;50.866;4.332;2024-03-23T03:02:15;8.00;99.90
24152;DHT22;12311;50.866;4.332;2024-03-23T03:04:42;7.90;99.90
24152;DHT22;12311;50.866;4.332;2024-03-23T03:07:08;8.00;99.90
24152;DHT22;12311;50.866;4.332;2024-03-23T03:09:33;7.90;99.90
24152;DHT22;12311;50.866;4.332;2024-03-23T03:12:03;7.90;99.90
24152;DHT22;12311;50.866;4.332;2024-03-23T03:14:28;8.00;99.90
24152;DHT22;12311;50.866;4.332;2024-03-23T03:16:54;8.10;99.90
24152;DHT22;12311;50.866;4.332;2024-03-23T03:19:20;7.90;99.90
24152;DHT22;12311;50.866;4.332;2024-03-23T03:21:46;8.00;99.90
24152;DHT22;12311;50.866;4.332;2024-03-23T03:24:13;8.00;99.90
24152;DHT22;12311;50.866;4.332;2024-03-23T03:26:38;8.00;99.90
24152;DHT22;12311;50.866;4.332;2024-03-23T03:29:04;8.00;99.90
24152;DHT22;12311;50.866;4.332;2024-03-23T03:31:30;7.90;99.90
24152;DHT22;12311;50.866;4.332;2024-03-23T03:33:56;7.80;99.90
24152;DHT22;12311;50.866;4.332;2024-03-23T03:36:21;7.80;99.90
24152;DHT22;12311;50.866;4.332;2024-03-23T03:38:47;7.70;99.90
24152;DHT22;12311;50.866;4.332;2024-03-23T03:41:12;7.70;99.90
24152;DHT22;12311;50.866;4.332;2024-03-23T03:43:38;7.70;99.90
24152;DHT22;12311;50.866;4.332;2024-03-23T03:46:04;7.60;99.90
24152;DHT22;12311;50.866;4.332;2024-03-23T03:48:29;7.60;99.90
24152;DHT22;12311;50.866;4.332;2024-03-23T03:50:55;7.50;99.90
24152;DHT22;12311;50.866;4.332;2024-03-23T03:53:21;7.50;99.90
24152;DHT22;12311;50.866;4.332;2024-03-23T03:55:47;7.40;99.90
24152;DHT22;12311;50.866;4.332;2024-03-23T03:58:12;7.50;99.90
24152;DHT22;12311;50.866;4.332;2024-03-23T04:00:38;7.40;99.90
24152;DHT22;12311;50.866;4.332;2024-03-23T04:03:04;7.40;99.90
24152;DHT22;12311;50.866;4.332;2024-03-23T04:05:29;7.40;99.90
24152;DHT22;12311;50.866;4.332;2024-03-23T04:07:56;7.50;99.90
24152;DHT22;12311;50.866;4.332;2024-03-23T04:10:21;7.50;99.90
24152;DHT22;12311;50.866;4.332;2024-03-23T04:12:47;7.60;99.90
24152;DHT22;12311;50.866;4.332;2024-03-23T04:15:13;7.50;99.90
24152;DHT22;12311;50.866;4.332;2024-03-23T04:17:39;7.50;99.90
24152;DHT22;12311;50.866;4.332;2024-03-23T04:20:05;7.40;99.90
24152;DHT22;12311;50.866;4.332;2024-03-23T04:22:39;7.40;99.90
24152;DHT22;12311;50.866;4.332;2024-03-23T04:25:05;7.40;99.90
24152;DHT22;12311;50.866;4.332;2024-03-23T04:27:33;7.40;99.90
24152;DHT22;12311;50.866;4.332;2024-03-23T04:29:58;7.50;99.90
24152;DHT22;12311;50.866;4.332;2024-03-23T04:32:26;7.40;99.90
24152;DHT22;12311;50.866;4.332;2024-03-23T04:34:52;7.40;99.90
24152;DHT22;12311;50.866;4.332;2024-03-23T04:37:18;7.40;99.90
24152;DHT22;12311;50.866;4.332;2024-03-23T04:39:43;7.40;99.90
24152;DHT22;12311;50.866;4.332;2024-03-23T04:42:09;7.40;99.90
24152;DHT22;12311;50.866;4.332;2024-03-23T04:44:35;7.50;99.90
24152;DHT22;12311;50.866;4.332;2024-03-23T04:47:01;7.40;99.90
24152;DHT22;12311;50.866;4.332;2024-03-23T04:49:27;7.40;99.90
24152;DHT22;12311;50.866;4.332;2024-03-23T04:51:52;7.30;99.90
24152;DHT22;12311;50.866;4.332;2024-03-23T04:54:18;7.30;99.90
24152;DHT22;12311;50.866;4.332;2024-03-23T04:56:44;7.30;99.90
24152;DHT22;12311;50.866;4.332;2024-03-23T04:59:09;7.10;99.90
24152;DHT22;12311;50.866;4.332;2024-03-23T05:01:35;7.10;99.90
24152;DHT22;12311;50.866;4.332;2024-03-23T05:04:04;7.10;99.90
24152;DHT22;12311;50.866;4.332;2024-03-23T05:06:30;7.00;99.90
24152;DHT22;12311;50.866;4.332;2024-03-23T05:08:56;7.00;99.90
24152;DHT22;12311;50.866;4.332;2024-03-23T05:11:22;7.10;99.90
24152;DHT22;12311;50.866;4.332;2024-03-23T05:13:47;7.00;99.90
24152;DHT22;12311;50.866;4.332;2024-03-23T05:16:13;7.10;99.90
24152;DHT22;12311;50.866;4.332;2024-03-23T05:18:39;7.10;99.90
24152;DHT22;12311;50.866;4.332;2024-03-23T05:21:04;7.00;99.90
24152;DHT22;12311;50.866;4.332;2024-03-23T05:23:30;7.00;99.90
24152;DHT22;12311;50.866;4.332;2024-03-23T05:25:56;7.00;99.90
24152;DHT22;12311;50.866;4.332;2024-03-23T05:28:22;7.00;99.90
24152;DHT22;12311;50.866;4.332;2024-03-23T05:30:54;7.10;99.90
24152;DHT22;12311;50.866;4.332;2024-03-23T05:33:20;7.10;99.90
24152;DHT22;12311;50.866;4.332;2024-03-23T05:35:46;7.10;99.90
24152;DHT22;12311;50.866;4.332;2024-03-23T05:38:13;7.10;99.90
24152;DHT22;12311;50.866;4.332;2024-03-23T05:40:39;7.10;99.90
24152;DHT22;12311;50.866;4.332;2024-03-23T05:43:08;7.00;99.90
24152;DHT22;12311;50.866;4.332;2024-03-23T05:45:34;7.10;99.90
24152;DHT22;12311;50.866;4.332;2024-03-23T05:48:00;7.20;99.90
24152;DHT22;12311;50.866;4.332;2024-03-23T05:50:26;7.10;99.90
24152;DHT22;12311;50.866;4.332;2024-03-23T05:52:52;7.10;99.90
24152;DHT22;12311;50.866;4.332;2024-03-23T05:55:18;7.20;99.90
24152;DHT22;12311;50.866;4.332;2024-03-23T05:57:43;7.10;99.90
24152;DHT22;12311;50.866;4.332;2024-03-23T06:00:09;7.10;99.90
24152;DHT22;12311;50.866;4.332;2024-03-23T06:02:44;7.10;99.90
24152;DHT22;12311;50.866;4.332;2024-03-23T06:05:13;7.20;99.90
24152;DHT22;12311;50.866;4.332;2024-03-23T06:07:39;7.20;99.90
24152;DHT22;12311;50.866;4.332;2024-03-23T06:10:05;7.20;99.90
24152;DHT22;12311;50.866;4.332;2024-03-23T06:12:31;7.10;99.90
24152;DHT22;12311;50.866;4.332;2024-03-23T06:14:57;7.10;99.90
24152;DHT22;12311;50.866;4.332;2024-03-23T06:17:23;7.20;99.90
24152;DHT22;12311;50.866;4.332;2024-03-23T06:19:48;7.20;99.90
24152;DHT22;12311;50.866;4.332;2024-03-23T06:22:14;7.20;99.90
24152;DHT22;12311;50.866;4.332;2024-03-23T06:24:40;7.20;99.90
24152;DHT22;12311;50.866;4.332;2024-03-23T06:27:06;7.30;99.90
24152;DHT22;12311;50.866;4.332;2024-03-23T06:29:32;7.30;99.90
24152;DHT22;12311;50.866;4.332;2024-03-23T06:31:58;7.40;99.90
24152;DHT22;12311;50.866;4.332;2024-03-23T06:34:24;7.50;99.90
24152;DHT22;12311;50.866;4.332;2024-03-23T06:36:49;7.50;99.90
24152;DHT22;12311;50.866;4.332;2024-03-23T06:39:18;7.50;99.90
24152;DHT22;12311;50.866;4.332;2024-03-23T06:41:53;7.30;99.90
24152;DHT22;12311;50.866;4.332;2024-03-23T06:44:20;7.30;99.90
24152;DHT22;12311;50.866;4.332;2024-03-23T06:46:46;7.20;99.90
24152;DHT22;12311;50.866;4.332;2024-03-23T06:49:12;7.40;99.90
24152;DHT22;12311;50.866;4.332;2024-03-23T06:51:37;7.40;99.90
24152;DHT22;12311;50.866;4.332;2024-03-23T06:54:04;7.40;99.90
24152;DHT22;12311;50.866;4.332;2024-03-23T06:56:30;7.40;99.90
24152;DHT22;12311;50.866;4.332;2024-03-23T06:58:57;7.50;99.90
24152;DHT22;12311;50.866;4.332;2024-03-23T07:01:22;7.50;99.90
24152;DHT22;12311;50.866;4.332;2024-03-23T07:03:48;7.30;99.90
24152;DHT22;12311;50.866;4.332;2024-03-23T07:06:14;7.00;99.90
24152;DHT22;12311;50.866;4.332;2024-03-23T07:08:39;6.90;99.90
24152;DHT22;12311;50.866;4.332;2024-03-23T07:11:05;6.70;99.90
24152;DHT22;12311;50.866;4.332;2024-03-23T07:13:31;6.50;99.90
24152;DHT22;12311;50.866;4.332;2024-03-23T07:15:56;6.30;99.90
24152;DHT22;12311;50.866;4.332;2024-03-23T07:18:23;6.10;99.90
24152;DHT22;12311;50.866;4.332;2024-03-23T07:20:56;6.00;99.90
24152;DHT22;12311;50.866;4.332;2024-03-23T07:23:22;6.00;99.90
24152;DHT22;12311;50.866;4.332;2024-03-23T07:26:01;6.00;99.90
24152;DHT22;12311;50.866;4.332;2024-03-23T07:28:27;6.10;99.90
24152;DHT22;12311;50.866;4.332;2024-03-23T07:31:02;6.20;99.90
24152;DHT22;12311;50.866;4.332;2024-03-23T07:33:28;6.10;99.90
24152;DHT22;12311;50.866;4.332;2024-03-23T07:35:54;6.20;99.90
24152;DHT22;12311;50.866;4.332;2024-03-23T07:38:19;6.30;99.90
24152;DHT22;12311;50.866;4.332;2024-03-23T07:40:45;6.40;99.90
24152;DHT22;12311;50.866;4.332;2024-03-23T07:43:11;6.50;99.90
24152;DHT22;12311;50.866;4.332;2024-03-23T07:45:36;6.60;99.90
24152;DHT22;12311;50.866;4.332;2024-03-23T07:48:04;6.70;99.90
24152;DHT22;12311;50.866;4.332;2024-03-23T07:50:29;6.80;99.90
24152;DHT22;12311;50.866;4.332;2024-03-23T07:52:55;6.90;99.90
24152;DHT22;12311;50.866;4.332;2024-03-23T07:55:21;7.00;99.90
24152;DHT22;12311;50.866;4.332;2024-03-23T07:57:46;7.00;99.90
24152;DHT22;12311;50.866;4.332;2024-03-23T08:00:13;7.10;99.90
24152;DHT22;12311;50.866;4.332;2024-03-23T08:02:38;7.20;99.90
24152;DHT22;12311;50.866;4.332;2024-03-23T08:05:04;7.40;99.90
24152;DHT22;12311;50.866;4.332;2024-03-23T08:07:30;7.40;99.90
24152;DHT22;12311;50.866;4.332;2024-03-23T08:09:56;7.40;99.90
24152;DHT22;12311;50.866;4.332;2024-03-23T08:12:21;7.40;99.90
24152;DHT22;12311;50.866;4.332;2024-03-23T08:14:47;7.40;99.90
24152;DHT22;12311;50.866;4.332;2024-03-23T08:17:12;7.40;99.90
24152;DHT22;12311;50.866;4.332;2024-03-23T08:19:38;7.50;99.90
24152;DHT22;12311;50.866;4.332;2024-03-23T08:22:04;7.70;99.90
24152;DHT22;12311;50.866;4.332;2024-03-23T08:24:29;7.80;99.90
24152;DHT22;12311;50.866;4.332;2024-03-23T08:26:55;7.90;99.90
24152;DHT22;12311;50.866;4.332;2024-03-23T08:29:21;7.80;99.90
24152;DHT22;12311;50.866;4.332;2024-03-23T08:31:47;7.80;99.90
24152;DHT22;12311;50.866;4.332;2024-03-23T08:34:12;7.80;99.90
24152;DHT22;12311;50.866;4.332;2024-03-23T08:36:38;7.90;99.90
24152;DHT22;12311;50.866;4.332;2024-03-23T08:39:03;8.10;99.90
24152;DHT22;12311;50.866;4.332;2024-03-23T08:41:29;8.20;99.90
24152;DHT22;12311;50.866;4.332;2024-03-23T08:43:55;8.20;99.90
24152;DHT22;12311;50.866;4.332;2024-03-23T08:46:21;8.20;99.90
24152;DHT22;12311;50.866;4.332;2024-03-23T08:48:47;8.20;99.90
24152;DHT22;12311;50.866;4.332;2024-03-23T08:51:15;8.10;99.90
24152;DHT22;12311;50.866;4.332;2024-03-23T08:53:42;8.20;99.90
24152;DHT22;12311;50.866;4.332;2024-03-23T08:56:09;8.20;99.90
24152;DHT22;12311;50.866;4.332;2024-03-23T08:58:35;8.20;99.90
24152;DHT22;12311;50.866;4.332;2024-03-23T09:01:10;8.20;99.90
24152;DHT22;12311;50.866;4.332;2024-03-23T09:03:36;8.30;99.90
24152;DHT22;12311;50.866;4.332;2024-03-23T09:06:07;8.50;99.90
24152;DHT22;12311;50.866;4.332;2024-03-23T09:08:33;8.50;99.90
24152;DHT22;12311;50.866;4.332;2024-03-23T09:11:04;8.60;99.90
24152;DHT22;12311;50.866;4.332;2024-03-23T09:13:32;8.60;99.90
24152;DHT22;12311;50.866;4.332;2024-03-23T09:15:58;8.80;99.90
24152;DHT22;12311;50.866;4.332;2024-03-23T09:18:23;8.90;99.90
24152;DHT22;12311;50.866;4.332;2024-03-23T09:20:49;8.80;99.90
24152;DHT22;12311;50.866;4.332;2024-03-23T09:23:15;8.90;99.90
24152;DHT22;12311;50.866;4.332;2024-03-23T09:25:42;9.10;99.90
24152;DHT22;12311;50.866;4.332;2024-03-23T09:28:08;9.10;99.90
24152;DHT22;12311;50.866;4.332;2024-03-23T09:30:34;9.10;99.90
24152;DHT22;12311;50.866;4.332;2024-03-23T09:33:00;9.20;99.90
24152;DHT22;12311;50.866;4.332;2024-03-23T09:35:26;9.20;99.90
24152;DHT22;12311;50.866;4.332;2024-03-23T09:37:52;9.20;99.90
24152;DHT22;12311;50.866;4.332;2024-03-23T09:40:18;9.20;99.90
24152;DHT22;12311;50.866;4.332;2024-03-23T09:42:50;9.20;99.90
24152;DHT22;12311;50.866;4.332;2024-03-23T09:45:28;9.10;99.90
24152;DHT22;12311;50.866;4.332;2024-03-23T09:47:55;9.10;99.90
24152;DHT22;12311;50.866;4.332;2024-03-23T09:50:21;9.00;99.90
24152;DHT22;12311;50.866;4.332;2024-03-23T09:52:47;8.90;99.90
24152;DHT22;12311;50.866;4.332;2024-03-23T09:55:13;9.00;99.90
24152;DHT22;12311;50.866;4.332;2024-03-23T09:57:40;9.30;99.90
24152;DHT22;12311;50.866;4.332;2024-03-23T10:00:07;9.20;99.90
24152;DHT22;12311;50.866;4.332;2024-03-23T10:02:34;9.20;99.90
24152;DHT22;12311;50.866;4.332;2024-03-23T10:04:59;9.20;99.90
24152;DHT22;12311;50.866;4.332;2024-03-23T10:07:25;9.10;99.90
24152;DHT22;12311;50.866;4.332;2024-03-23T10:09:53;9.10;99.90
24152;DHT22;12311;50.866;4.332;2024-03-23T10:12:20;9.10;99.90
24152;DHT22;12311;50.866;4.332;2024-03-23T10:14:46;9.20;99.90
24152;DHT22;12311;50.866;4.332;2024-03-23T10:17:19;9.40;99.90
24152;DHT22;12311;50.866;4.332;2024-03-23T10:19:46;9.50;99.90
24152;DHT22;12311;50.866;4.332;2024-03-23T10:22:22;9.70;99.90
24152;DHT22;12311;50.866;4.332;2024-03-23T10:24:48;9.70;99.90
24152;DHT22;12311;50.866;4.332;2024-03-23T10:27:19;9.80;99.90
24152;DHT22;12311;50.866;4.332;2024-03-23T10:29:48;9.70;99.90
24152;DHT22;12311;50.866;4.332;2024-03-23T10:32:18;9.50;99.90
24152;DHT22;12311;50.866;4.332;2024-03-23T10:34:44;9.30;99.90
24152;DHT22;12311;50.866;4.332;2024-03-23T10:37:10;8.90;99.90
24152;DHT22;12311;50.866;4.332;2024-03-23T10:39:40;8.90;99.90
24152;DHT22;12311;50.866;4.332;2024-03-23T10:42:09;9.10;99.90
24152;DHT22;12311;50.866;4.332;2024-03-23T10:44:40;9.40;99.90
24152;DHT22;12311;50.866;4.332;2024-03-23T10:47:05;9.60;99.90
24152;DHT22;12311;50.866;4.332;2024-03-23T10:49:32;9.70;99.90
24152;DHT22;12311;50.866;4.332;2024-03-23T10:52:03;9.70;99.90
24152;DHT22;12311;50.866;4.332;2024-03-23T10:54:33;9.90;99.90
24152;DHT22;12311;50.866;4.332;2024-03-23T10:59:37;10.20;99.90
24152;DHT22;12311;50.866;4.332;2024-03-23T11:02:03;10.40;99.90
24152;DHT22;12311;50.866;4.332;2024-03-23T11:04:35;10.60;99.90
24152;DHT22;12311;50.866;4.332;2024-03-23T11:09:50;10.50;99.90
24152;DHT22;12311;50.866;4.332;2024-03-23T11:17:30;10.60;99.90
24152;DHT22;12311;50.866;4.332;2024-03-23T11:20:04;10.90;99.90
24152;DHT22;12311;50.866;4.332;2024-03-23T11:22:44;11.10;99.90
24152;DHT22;12311;50.866;4.332;2024-03-23T11:25:18;11.30;99.90
24152;DHT22;12311;50.866;4.332;2024-03-23T11:27:45;11.40;99.90
24152;DHT22;12311;50.866;4.332;2024-03-23T11:32:44;11.10;99.90
24152;DHT22;12311;50.866;4.332;2024-03-23T11:35:10;10.90;99.90
24152;DHT22;12311;50.866;4.332;2024-03-23T11:37:36;10.70;99.90
24152;DHT22;12311;50.866;4.332;2024-03-23T11:40:21;10.90;99.90
24152;DHT22;12311;50.866;4.332;2024-03-23T11:42:46;11.10;99.90
24152;DHT22;12311;50.866;4.332;2024-03-23T11:45:12;11.40;99.90
24152;DHT22;12311;50.866;4.332;2024-03-23T11:47:39;11.30;99.90
24152;DHT22;12311;50.866;4.332;2024-03-23T11:50:05;11.40;99.90
24152;DHT22;12311;50.866;4.332;2024-03-23T11:52:31;11.60;99.90
24152;DHT22;12311;50.866;4.332;2024-03-23T11:55:04;11.50;99.90
24152;DHT22;12311;50.866;4.332;2024-03-23T11:57:30;11.40;99.90
24152;DHT22;12311;50.866;4.332;2024-03-23T11:59:56;11.40;99.90
24152;DHT22;12311;50.866;4.332;2024-03-23T12:02:21;11.30;99.90
24152;DHT22;12311;50.866;4.332;2024-03-23T12:04:47;11.30;99.90
24152;DHT22;12311;50.866;4.332;2024-03-23T12:07:15;11.50;99.90
24152;DHT22;12311;50.866;4.332;2024-03-23T12:09:41;11.40;99.90
24152;DHT22;12311;50.866;4.332;2024-03-23T12:12:08;11.10;99.90
24152;DHT22;12311;50.866;4.332;2024-03-23T12:14:34;11.00;99.90
24152;DHT22;12311;50.866;4.332;2024-03-23T12:17:13;10.70;99.90
24152;DHT22;12311;50.866;4.332;2024-03-23T12:19:39;10.30;99.90
24152;DHT22;12311;50.866;4.332;2024-03-23T12:22:07;9.90;99.90
24152;DHT22;12311;50.866;4.332;2024-03-23T12:24:33;9.50;99.90
24152;DHT22;12311;50.866;4.332;2024-03-23T12:27:05;9.20;99.90
24152;DHT22;12311;50.866;4.332;2024-03-23T12:29:34;9.20;99.90
24152;DHT22;12311;50.866;4.332;2024-03-23T12:32:03;9.40;99.90
24152;DHT22;12311;50.866;4.332;2024-03-23T12:34:29;10.00;99.90
24152;DHT22;12311;50.866;4.332;2024-03-23T12:36:56;10.50;99.90
24152;DHT22;12311;50.866;4.332;2024-03-23T12:39:21;11.10;99.90
24152;DHT22;12311;50.866;4.332;2024-03-23T12:41:48;11.10;99.90
24152;DHT22;12311;50.866;4.332;2024-03-23T12:44:14;11.30;99.90
24152;DHT22;12311;50.866;4.332;2024-03-23T12:46:41;11.70;99.90
24152;DHT22;12311;50.866;4.332;2024-03-23T12:49:07;12.50;99.90
24152;DHT22;12311;50.866;4.332;2024-03-23T12:51:33;12.80;99.90
24152;DHT22;12311;50.866;4.332;2024-03-23T12:53:59;12.80;99.90
24152;DHT22;12311;50.866;4.332;2024-03-23T12:56:25;12.90;99.90
24152;DHT22;12311;50.866;4.332;2024-03-23T12:58:50;13.10;99.90
24152;DHT22;12311;50.866;4.332;2024-03-23T13:01:20;13.70;99.90
24152;DHT22;12311;50.866;4.332;2024-03-23T13:03:47;14.00;99.90
24152;DHT22;12311;50.866;4.332;2024-03-23T13:06:13;13.80;99.90
24152;DHT22;12311;50.866;4.332;2024-03-23T13:08:39;13.20;1.00
24152;DHT22;12311;50.866;4.332;2024-03-23T13:11:06;12.80;1.00
24152;DHT22;12311;50.866;4.332;2024-03-23T13:13:37;12.70;1.00
24152;DHT22;12311;50.866;4.332;2024-03-23T13:16:03;13.00;99.90
24152;DHT22;12311;50.866;4.332;2024-03-23T13:18:29;12.80;1.00
24152;DHT22;12311;50.866;4.332;2024-03-23T13:20:55;12.20;1.00
24152;DHT22;12311;50.866;4.332;2024-03-23T13:23:21;11.80;1.00
24152;DHT22;12311;50.866;4.332;2024-03-23T13:25:54;11.50;99.90
24152;DHT22;12311;50.866;4.332;2024-03-23T13:28:21;11.70;99.90
24152;DHT22;12311;50.866;4.332;2024-03-23T13:30:51;12.20;99.90
24152;DHT22;12311;50.866;4.332;2024-03-23T13:33:17;12.20;99.90
24152;DHT22;12311;50.866;4.332;2024-03-23T13:35:52;12.10;99.90
24152;DHT22;12311;50.866;4.332;2024-03-23T13:38:18;12.00;99.90
24152;DHT22;12311;50.866;4.332;2024-03-23T13:40:54;11.20;99.90
24152;DHT22;12311;50.866;4.332;2024-03-23T13:43:21;10.30;99.90
24152;DHT22;12311;50.866;4.332;2024-03-23T13:45:51;9.80;99.90
24152;DHT22;12311;50.866;4.332;2024-03-23T13:48:19;9.40;99.90
24152;DHT22;12311;50.866;4.332;2024-03-23T13:50:45;9.50;99.90
24152;DHT22;12311;50.866;4.332;2024-03-23T13:53:14;10.10;99.90
24152;DHT22;12311;50.866;4.332;2024-03-23T13:55:46;10.60;99.90
24152;DHT22;12311;50.866;4.332;2024-03-23T13:58:14;11.10;99.90
24152;DHT22;12311;50.866;4.332;2024-03-23T14:00:40;11.60;99.90
24152;DHT22;12311;50.866;4.332;2024-03-23T14:03:05;12.20;99.90
24152;DHT22;12311;50.866;4.332;2024-03-23T14:05:31;12.10;99.90
24152;DHT22;12311;50.866;4.332;2024-03-23T14:07:57;11.70;99.90
24152;DHT22;12311;50.866;4.332;2024-03-23T14:10:22;11.20;99.90
24152;DHT22;12311;50.866;4.332;2024-03-23T14:12:48;10.90;99.90
24152;DHT22;12311;50.866;4.332;2024-03-23T14:15:13;10.70;99.90
24152;DHT22;12311;50.866;4.332;2024-03-23T14:17:39;10.50;99.90
24152;DHT22;12311;50.866;4.332;2024-03-23T14:20:05;10.50;99.90
24152;DHT22;12311;50.866;4.332;2024-03-23T14:22:31;10.70;99.90
24152;DHT22;12311;50.866;4.332;2024-03-23T14:24:57;11.20;99.90
24152;DHT22;12311;50.866;4.332;2024-03-23T14:27:24;11.70;99.90
24152;DHT22;12311;50.866;4.332;2024-03-23T14:29:49;11.80;99.90
24152;DHT22;12311;50.866;4.332;2024-03-23T14:32:15;11.60;99.90
24152;DHT22;12311;50.866;4.332;2024-03-23T14:34:41;11.10;99.90
24152;DHT22;12311;50.866;4.332;2024-03-23T14:37:07;10.80;99.90
24152;DHT22;12311;50.866;4.332;2024-03-23T14:39:33;10.60;99.90
24152;DHT22;12311;50.866;4.332;2024-03-23T14:42:04;10.50;99.90
24152;DHT22;12311;50.866;4.332;2024-03-23T14:44:31;10.70;99.90
24152;DHT22;12311;50.866;4.332;2024-03-23T14:46:57;11.50;99.90
24152;DHT22;12311;50.866;4.332;2024-03-23T14:49:23;12.20;99.90
24152;DHT22;12311;50.866;4.332;2024-03-23T14:51:49;12.50;99.90
24152;DHT22;12311;50.866;4.332;2024-03-23T14:54:15;12.80;99.90
24152;DHT22;12311;50.866;4.332;2024-03-23T14:56:41;12.90;99.90
24152;DHT22;12311;50.866;4.332;2024-03-23T14:59:07;13.00;99.90
24152;DHT22;12311;50.866;4.332;2024-03-23T15:01:33;12.60;99.90
24152;DHT22;12311;50.866;4.332;2024-03-23T15:03:59;12.50;99.90
24152;DHT22;12311;50.866;4.332;2024-03-23T15:06:25;12.50;99.90
24152;DHT22;12311;50.866;4.332;2024-03-23T15:08:50;12.70;99.90
24152;DHT22;12311;50.866;4.332;2024-03-23T15:11:16;12.70;99.90
24152;DHT22;12311;50.866;4.332;2024-03-23T15:13:44;13.20;99.90
24152;DHT22;12311;50.866;4.332;2024-03-23T15:16:10;13.60;99.90
24152;DHT22;12311;50.866;4.332;2024-03-23T15:18:36;13.90;99.90
24152;DHT22;12311;50.866;4.332;2024-03-23T15:21:03;13.20;99.90
24152;DHT22;12311;50.866;4.332;2024-03-23T15:23:31;12.70;99.90
24152;DHT22;12311;50.866;4.332;2024-03-23T15:26:01;12.30;99.90
24152;DHT22;12311;50.866;4.332;2024-03-23T15:28:28;11.90;99.90
24152;DHT22;12311;50.866;4.332;2024-03-23T15:31:08;12.00;99.90
24152;DHT22;12311;50.866;4.332;2024-03-23T15:33:35;12.20;99.90
24152;DHT22;12311;50.866;4.332;2024-03-23T15:36:02;11.90;99.90
24152;DHT22;12311;50.866;4.332;2024-03-23T15:38:28;12.00;99.90
24152;DHT22;12311;50.866;4.332;2024-03-23T15:40:56;12.50;99.90
24152;DHT22;12311;50.866;4.332;2024-03-23T15:43:22;12.70;99.90
24152;DHT22;12311;50.866;4.332;2024-03-23T15:45:57;13.00;99.90
24152;DHT22;12311;50.866;4.332;2024-03-23T15:48:25;13.20;99.90
24152;DHT22;12311;50.866;4.332;2024-03-23T15:50:53;13.20;99.90
24152;DHT22;12311;50.866;4.332;2024-03-23T15:53:23;13.10;99.90
24152;DHT22;12311;50.866;4.332;2024-03-23T15:55:56;12.80;99.90
24152;DHT22;12311;50.866;4.332;2024-03-23T15:58:22;12.80;99.90
24152;DHT22;12311;50.866;4.332;2024-03-23T16:03:24;12.70;99.90
24152;DHT22;12311;50.866;4.332;2024-03-23T16:05:57;12.50;99.90
24152;DHT22;12311;50.866;4.332;2024-03-23T16:08:23;12.10;99.90
24152;DHT22;12311;50.866;4.332;2024-03-23T16:10:49;11.80;99.90
24152;DHT22;12311;50.866;4.332;2024-03-23T16:13:16;11.60;99.90
24152;DHT22;12311;50.866;4.332;2024-03-23T16:15:42;11.40;99.90
24152;DHT22;12311;50.866;4.332;2024-03-23T16:18:08;11.20;99.90
24152;DHT22;12311;50.866;4.332;2024-03-23T16:20:33;11.10;99.90
24152;DHT22;12311;50.866;4.332;2024-03-23T16:23:00;11.10;99.90
24152;DHT22;12311;50.866;4.332;2024-03-23T16:25:26;11.30;99.90
24152;DHT22;12311;50.866;4.332;2024-03-23T16:27:51;11.40;99.90
24152;DHT22;12311;50.866;4.332;2024-03-23T16:30:17;11.40;99.90
24152;DHT22;12311;50.866;4.332;2024-03-23T16:32:43;11.40;99.90
24152;DHT22;12311;50.866;4.332;2024-03-23T16:35:08;11.30;99.90
24152;DHT22;12311;50.866;4.332;2024-03-23T16:37:35;11.30;99.90
24152;DHT22;12311;50.866;4.332;2024-03-23T16:40:01;11.20;99.90
24152;DHT22;12311;50.866;4.332;2024-03-23T16:42:27;10.90;99.90
24152;DHT22;12311;50.866;4.332;2024-03-23T16:44:53;10.80;99.90
24152;DHT22;12311;50.866;4.332;2024-03-23T16:47:19;10.80;99.90